Station History


Daily Summary for March 16, 2012 Units:  Both    English   Metric
« Previous Day
Next Day »
Daily Weekly Monthly Yearly Custom
  High: Low: Average:
Temperature: 74.2 °F /  23.4 °C 50.0 °F /  10 °C 60.7 °F /  15.9 °C
Dew Point: 55.9 °F /  13.3 °C 47.1 °F /  8.4 °C 51.4 °F /  10.8 °C
Humidity: 91% 50% 73%
Wind Speed: 4.6mph /  7.4km/h - 1.5mph /  2.4km/h
Wind Gust: 4.6mph /  7.4km/h - -
Wind- - SW
Pressure: 30.03 in /  1016.8 hPa 29.77 in /  1008 hPa -
Precipitation: 0.00 in /  0 mm    
Historical Graphs
 
 
Tabular Data for March 16, 2012
Time Temperature Dew Point Pressure Wind Wind Speed Wind Gust Humidity Rainfall Rate (Hourly)
00:02 56.7 °F /  13.7 °C 49.6 °F /  9.8 °C 30.03in /  1016.8hPa Calm     77% 0.00in /  0mm
00:07 56.6 °F /  13.7 °C 49.8 °F /  9.9 °C 30.03in /  1016.8hPa Calm     78% 0.00in /  0mm
00:12 56.5 °F /  13.6 °C 49.7 °F /  9.8 °C 30.03in /  1016.8hPa Calm     78% 0.00in /  0mm
00:17 56.5 °F /  13.6 °C 49.7 °F /  9.8 °C 30.02in /  1016.5hPa Calm     78% 0.00in /  0mm
00:19 56.4 °F /  13.6 °C 49.6 °F /  9.8 °C 30.02in /  1016.5hPa Calm     78% 0.00in /  0mm
00:24 56.3 °F /  13.5 °C 49.5 °F /  9.7 °C 30.03in /  1016.8hPa Calm     78% 0.00in /  0mm
00:29 56.1 °F /  13.4 °C 50.0 °F /  10 °C 30.02in /  1016.5hPa Calm     80% 0.00in /  0mm
00:34 55.9 °F /  13.3 °C 49.8 °F /  9.9 °C 30.02in /  1016.5hPa Calm     80% 0.00in /  0mm
00:39 55.8 °F /  13.2 °C 50.1 °F /  10.1 °C 30.02in /  1016.5hPa Calm     81% 0.00in /  0mm
00:44 55.7 °F /  13.2 °C 50.0 °F /  10 °C 30.02in /  1016.5hPa Calm     81% 0.00in /  0mm
00:49 55.6 °F /  13.1 °C 49.9 °F /  9.9 °C 30.02in /  1016.5hPa Calm     81% 0.00in /  0mm
00:54 55.4 °F /  13 °C 49.7 °F /  9.8 °C 30.02in /  1016.5hPa Calm     81% 0.00in /  0mm
00:59 55.1 °F /  12.8 °C 49.4 °F /  9.7 °C 30.02in /  1016.5hPa Calm     81% 0.00in /  0mm
01:04 54.8 °F /  12.7 °C 49.1 °F /  9.5 °C 30.02in /  1016.5hPa Calm     81% 0.00in /  0mm
01:09 54.6 °F /  12.6 °C 49.5 °F /  9.7 °C 30.02in /  1016.5hPa Calm     83% 0.00in /  0mm
01:14 54.4 °F /  12.4 °C 49.3 °F /  9.6 °C 30.01in /  1016.1hPa Calm     83% 0.00in /  0mm
01:19 54.2 °F /  12.3 °C 49.1 °F /  9.5 °C 30.01in /  1016.1hPa Calm     83% 0.00in /  0mm
01:24 54.2 °F /  12.3 °C 49.1 °F /  9.5 °C 30.01in /  1016.1hPa Calm     83% 0.00in /  0mm
01:29 54.4 °F /  12.4 °C 49.0 °F /  9.4 °C 30.01in /  1016.1hPa Calm     82% 0.00in /  0mm
01:34 54.4 °F /  12.4 °C 49.0 °F /  9.4 °C 30.01in /  1016.1hPa Calm     82% 0.00in /  0mm
01:39 54.3 °F /  12.4 °C 48.6 °F /  9.2 °C 30.01in /  1016.1hPa Calm     81% 0.00in /  0mm
01:44 54.3 °F /  12.4 °C 48.6 °F /  9.2 °C 30.02in /  1016.5hPa Calm     81% 0.00in /  0mm
01:49 54.4 °F /  12.4 °C 48.7 °F /  9.3 °C 30.02in /  1016.5hPa Calm     81% 0.00in /  0mm
01:54 54.4 °F /  12.4 °C 48.7 °F /  9.3 °C 30.02in /  1016.5hPa Calm     81% 0.00in /  0mm
01:59 54.3 °F /  12.4 °C 48.3 °F /  9.1 °C 30.02in /  1016.5hPa Calm     80% 0.00in /  0mm
02:04 54.2 °F /  12.3 °C 48.2 °F /  9 °C 30.02in /  1016.5hPa Calm     80% 0.00in /  0mm
02:09 54.1 °F /  12.3 °C 48.4 °F /  9.1 °C 30.02in /  1016.5hPa Calm     81% 0.00in /  0mm
02:14 54.0 °F /  12.2 °C 48.3 °F /  9.1 °C 30.03in /  1016.8hPa Calm     81% 0.00in /  0mm
02:19 53.8 °F /  12.1 °C 48.4 °F /  9.1 °C 30.03in /  1016.8hPa Calm     82% 0.00in /  0mm
02:24 53.6 °F /  12 °C 48.6 °F /  9.2 °C 30.03in /  1016.8hPa Calm     83% 0.00in /  0mm
02:29 53.3 °F /  11.8 °C 47.9 °F /  8.8 °C 30.02in /  1016.5hPa Calm     82% 0.00in /  0mm
02:34 52.9 °F /  11.6 °C 47.9 °F /  8.8 °C 30.03in /  1016.8hPa Calm     83% 0.00in /  0mm
02:39 52.6 °F /  11.4 °C 47.9 °F /  8.8 °C 30.03in /  1016.8hPa Calm     84% 0.00in /  0mm
02:44 52.4 °F /  11.3 °C 48.0 °F /  8.9 °C 30.03in /  1016.8hPa Calm     85% 0.00in /  0mm
02:50 52.2 °F /  11.2 °C 48.1 °F /  8.9 °C 30.02in /  1016.5hPa Calm     86% 0.00in /  0mm
02:55 52.0 °F /  11.1 °C 47.9 °F /  8.8 °C 30.02in /  1016.5hPa Calm     86% 0.00in /  0mm
03:00 51.7 °F /  10.9 °C 48.0 °F /  8.9 °C 30.02in /  1016.5hPa Calm     87% 0.00in /  0mm
03:05 51.6 °F /  10.9 °C 47.9 °F /  8.8 °C 30.02in /  1016.5hPa Calm     87% 0.00in /  0mm
03:10 51.7 °F /  10.9 °C 48.3 °F /  9.1 °C 30.02in /  1016.5hPa Calm     88% 0.00in /  0mm
03:15 51.7 °F /  10.9 °C 48.3 °F /  9.1 °C 30.02in /  1016.5hPa Calm     88% 0.00in /  0mm
03:20 51.6 °F /  10.9 °C 47.9 °F /  8.8 °C 30.01in /  1016.1hPa Calm     87% 0.00in /  0mm
03:25 51.6 °F /  10.9 °C 47.9 °F /  8.8 °C 30.01in /  1016.1hPa Calm     87% 0.00in /  0mm
03:30 51.5 °F /  10.8 °C 47.8 °F /  8.8 °C 30.01in /  1016.1hPa Calm     87% 0.00in /  0mm
03:35 51.5 °F /  10.8 °C 47.8 °F /  8.8 °C 30.01in /  1016.1hPa Calm     87% 0.00in /  0mm
03:40 51.5 °F /  10.8 °C 47.8 °F /  8.8 °C 30.00in /  1015.8hPa Calm     87% 0.00in /  0mm
03:45 51.5 °F /  10.8 °C 47.8 °F /  8.8 °C 30.00in /  1015.8hPa Calm     87% 0.00in /  0mm
03:50 51.4 °F /  10.8 °C 47.7 °F /  8.7 °C 30.00in /  1015.8hPa Calm     87% 0.00in /  0mm
03:55 51.3 °F /  10.7 °C 47.6 °F /  8.7 °C 30.00in /  1015.8hPa Calm     87% 0.00in /  0mm
04:00 51.2 °F /  10.7 °C 47.5 °F /  8.6 °C 30.00in /  1015.8hPa Calm     87% 0.00in /  0mm
04:05 51.0 °F /  10.6 °C 47.3 °F /  8.5 °C 29.99in /  1015.5hPa Calm     87% 0.00in /  0mm
04:10 50.9 °F /  10.5 °C 47.2 °F /  8.4 °C 29.99in /  1015.5hPa Calm     87% 0.00in /  0mm
04:15 50.8 °F /  10.4 °C 47.4 °F /  8.6 °C 29.98in /  1015.1hPa Calm     88% 0.00in /  0mm
04:20 50.9 °F /  10.5 °C 47.5 °F /  8.6 °C 29.98in /  1015.1hPa Calm     88% 0.00in /  0mm
04:25 51.0 °F /  10.6 °C 47.9 °F /  8.8 °C 29.98in /  1015.1hPa Calm     89% 0.00in /  0mm
04:30 51.0 °F /  10.6 °C 47.9 °F /  8.8 °C 29.98in /  1015.1hPa Calm     89% 0.00in /  0mm
04:35 51.1 °F /  10.6 °C 48.0 °F /  8.9 °C 29.98in /  1015.1hPa Calm     89% 0.00in /  0mm
04:36 51.1 °F /  10.6 °C 48.0 °F /  8.9 °C 29.98in /  1015.1hPa Calm     89% 0.00in /  0mm
04:41 51.2 °F /  10.7 °C 48.1 °F /  8.9 °C 29.98in /  1015.1hPa Calm     89% 0.00in /  0mm
04:46 51.2 °F /  10.7 °C 48.1 °F /  8.9 °C 29.98in /  1015.1hPa Calm     89% 0.00in /  0mm
04:51 51.3 °F /  10.7 °C 48.2 °F /  9 °C 29.98in /  1015.1hPa Calm     89% 0.00in /  0mm
04:56 51.4 °F /  10.8 °C 48.3 °F /  9.1 °C 29.98in /  1015.1hPa Calm     89% 0.00in /  0mm
05:01 51.6 °F /  10.9 °C 48.5 °F /  9.2 °C 29.97in /  1014.8hPa Calm     89% 0.00in /  0mm
05:06 51.8 °F /  11 °C 48.7 °F /  9.3 °C 29.98in /  1015.1hPa Calm     89% 0.00in /  0mm
05:11 51.9 °F /  11.1 °C 48.5 °F /  9.2 °C 29.97in /  1014.8hPa SSW 1.0mph /  1.6km/h   88% 0.00in /  0mm
05:16 52.0 °F /  11.1 °C 48.3 °F /  9.1 °C 29.97in /  1014.8hPa Calm     87% 0.00in /  0mm
05:21 52.0 °F /  11.1 °C 48.3 °F /  9.1 °C 29.97in /  1014.8hPa Calm     87% 0.00in /  0mm
05:26 51.9 °F /  11.1 °C 48.2 °F /  9 °C 29.97in /  1014.8hPa Calm     87% 0.00in /  0mm
05:31 51.8 °F /  11 °C 48.1 °F /  8.9 °C 29.97in /  1014.8hPa Calm     87% 0.00in /  0mm
05:36 51.8 °F /  11 °C 48.1 °F /  8.9 °C 29.97in /  1014.8hPa Calm     87% 0.00in /  0mm
05:41 51.7 °F /  10.9 °C 48.0 °F /  8.9 °C 29.97in /  1014.8hPa Calm     87% 0.00in /  0mm
05:46 51.6 °F /  10.9 °C 47.9 °F /  8.8 °C 29.97in /  1014.8hPa Calm     87% 0.00in /  0mm
05:51 51.5 °F /  10.8 °C 47.8 °F /  8.8 °C 29.97in /  1014.8hPa Calm     87% 0.00in /  0mm
05:56 51.4 °F /  10.8 °C 47.7 °F /  8.7 °C 29.97in /  1014.8hPa Calm     87% 0.00in /  0mm
06:01 51.3 °F /  10.7 °C 47.6 °F /  8.7 °C 29.97in /  1014.8hPa Calm     87% 0.00in /  0mm
06:06 51.1 °F /  10.6 °C 47.7 °F /  8.7 °C 29.98in /  1015.1hPa Calm     88% 0.00in /  0mm
06:11 50.9 °F /  10.5 °C 47.5 °F /  8.6 °C 29.98in /  1015.1hPa Calm     88% 0.00in /  0mm
06:16 50.8 °F /  10.4 °C 47.4 °F /  8.6 °C 29.98in /  1015.1hPa Calm     88% 0.00in /  0mm
06:21 50.7 °F /  10.4 °C 47.3 °F /  8.5 °C 29.98in /  1015.1hPa Calm     88% 0.00in /  0mm
06:26 50.5 °F /  10.3 °C 47.4 °F /  8.6 °C 29.98in /  1015.1hPa Calm     89% 0.00in /  0mm
06:31 50.4 °F /  10.2 °C 47.3 °F /  8.5 °C 29.98in /  1015.1hPa Calm     89% 0.00in /  0mm
06:36 50.3 °F /  10.2 °C 47.2 °F /  8.4 °C 29.99in /  1015.5hPa Calm     89% 0.00in /  0mm
06:41 50.2 °F /  10.1 °C 47.1 °F /  8.4 °C 29.99in /  1015.5hPa Calm     89% 0.00in /  0mm
06:46 50.1 °F /  10.1 °C 47.3 °F /  8.5 °C 30.00in /  1015.8hPa Calm     90% 0.00in /  0mm
06:51 50.0 °F /  10 °C 47.2 °F /  8.4 °C 30.00in /  1015.8hPa Calm     90% 0.00in /  0mm
06:56 50.1 °F /  10.1 °C 47.3 °F /  8.5 °C 30.00in /  1015.8hPa Calm     90% 0.00in /  0mm
07:01 50.2 °F /  10.1 °C 47.7 °F /  8.7 °C 30.00in /  1015.8hPa Calm     91% 0.00in /  0mm
07:06 50.4 °F /  10.2 °C 47.9 °F /  8.8 °C 30.01in /  1016.1hPa Calm     91% 0.00in /  0mm
07:11 50.6 °F /  10.3 °C 48.1 °F /  8.9 °C 30.01in /  1016.1hPa Calm     91% 0.00in /  0mm
07:16 50.8 °F /  10.4 °C 48.3 °F /  9.1 °C 30.01in /  1016.1hPa Calm     91% 0.00in /  0mm
07:21 51.0 °F /  10.6 °C 48.5 °F /  9.2 °C 30.01in /  1016.1hPa Calm     91% 0.00in /  0mm
07:26 51.3 °F /  10.7 °C 48.8 °F /  9.3 °C 30.01in /  1016.1hPa Calm     91% 0.00in /  0mm
07:31 51.6 °F /  10.9 °C 49.1 °F /  9.5 °C 30.01in /  1016.1hPa Calm     91% 0.00in /  0mm
07:36 51.8 °F /  11 °C 49.3 °F /  9.6 °C 30.00in /  1015.8hPa Calm     91% 0.00in /  0mm
07:41 52.0 °F /  11.1 °C 49.5 °F /  9.7 °C 30.01in /  1016.1hPa Calm     91% 0.00in /  0mm
07:46 52.2 °F /  11.2 °C 49.7 °F /  9.8 °C 30.01in /  1016.1hPa Calm     91% 0.00in /  0mm
07:51 52.5 °F /  11.4 °C 49.7 °F /  9.8 °C 30.00in /  1015.8hPa Calm     90% 0.00in /  0mm
07:56 52.8 °F /  11.6 °C 49.6 °F /  9.8 °C 30.01in /  1016.1hPa SSW 1.1mph /  1.8km/h   89% 0.00in /  0mm
08:01 53.0 °F /  11.7 °C 49.5 °F /  9.7 °C 30.01in /  1016.1hPa Calm     88% 0.00in /  0mm
08:06 53.2 °F /  11.8 °C 49.7 °F /  9.8 °C 30.00in /  1015.8hPa Calm     88% 0.00in /  0mm
08:11 53.3 °F /  11.8 °C 49.8 °F /  9.9 °C 30.00in /  1015.8hPa Calm     88% 0.00in /  0mm
08:16 53.5 °F /  11.9 °C 50.0 °F /  10 °C 30.00in /  1015.8hPa Calm     88% 0.00in /  0mm
08:22 53.7 °F /  12.1 °C 50.2 °F /  10.1 °C 30.00in /  1015.8hPa SE 1.1mph /  1.8km/h   88% 0.00in /  0mm
08:27 53.8 °F /  12.1 °C 50.3 °F /  10.2 °C 30.00in /  1015.8hPa Calm   0.3mph /  0.5km/h 88% 0.00in /  0mm
08:32 54.1 °F /  12.3 °C 50.6 °F /  10.3 °C 30.00in /  1015.8hPa Calm     88% 0.00in /  0mm
08:37 54.3 °F /  12.4 °C 50.8 °F /  10.4 °C 30.00in /  1015.8hPa Calm     88% 0.00in /  0mm
08:42 54.6 °F /  12.6 °C 51.1 °F /  10.6 °C 30.00in /  1015.8hPa Calm     88% 0.00in /  0mm
08:47 54.9 °F /  12.7 °C 51.4 °F /  10.8 °C 29.99in /  1015.5hPa SSE 1.1mph /  1.8km/h 1.1mph /  1.8km/h 88% 0.00in /  0mm
08:52 55.2 °F /  12.9 °C 51.4 °F /  10.8 °C 29.99in /  1015.5hPa SSE 1.1mph /  1.8km/h 1.1mph /  1.8km/h 87% 0.00in /  0mm
08:57 55.5 °F /  13.1 °C 51.7 °F /  10.9 °C 29.98in /  1015.1hPa SE 1.1mph /  1.8km/h   87% 0.00in /  0mm
09:02 56.0 °F /  13.3 °C 52.2 °F /  11.2 °C 29.98in /  1015.1hPa SE 1.1mph /  1.8km/h   87% 0.00in /  0mm
09:07 56.5 °F /  13.6 °C 52.4 °F /  11.3 °C 29.98in /  1015.1hPa SE 1.1mph /  1.8km/h 1.1mph /  1.8km/h 86% 0.00in /  0mm
09:12 57.0 °F /  13.9 °C 52.9 °F /  11.6 °C 29.98in /  1015.1hPa SSE 1.1mph /  1.8km/h   86% 0.00in /  0mm
09:17 57.7 °F /  14.3 °C 52.9 °F /  11.6 °C 29.98in /  1015.1hPa SE 2.3mph /  3.7km/h 2.3mph /  3.7km/h 84% 0.00in /  0mm
09:22 58.4 °F /  14.7 °C 53.3 °F /  11.8 °C 29.98in /  1015.1hPa SE 1.1mph /  1.8km/h 1.1mph /  1.8km/h 83% 0.00in /  0mm
09:27 59.0 °F /  15 °C 53.5 °F /  11.9 °C 29.98in /  1015.1hPa Calm     82% 0.00in /  0mm
09:32 59.7 °F /  15.4 °C 53.9 °F /  12.2 °C 29.99in /  1015.5hPa SE 1.1mph /  1.8km/h 1.1mph /  1.8km/h 81% 0.00in /  0mm
09:37 60.3 °F /  15.7 °C 53.8 °F /  12.1 °C 29.99in /  1015.5hPa SSE 1.1mph /  1.8km/h 1.1mph /  1.8km/h 79% 0.00in /  0mm
09:42 60.5 °F /  15.8 °C 54.0 °F /  12.2 °C 30.00in /  1015.8hPa SSE 1.1mph /  1.8km/h   79% 0.00in /  0mm
09:47 60.7 °F /  15.9 °C 53.8 °F /  12.1 °C 30.00in /  1015.8hPa SW 1.1mph /  1.8km/h 1.1mph /  1.8km/h 78% 0.00in /  0mm
09:52 60.9 °F /  16.1 °C 54.0 °F /  12.2 °C 30.00in /  1015.8hPa SSW 1.1mph /  1.8km/h 1.1mph /  1.8km/h 78% 0.00in /  0mm
09:57 61.3 °F /  16.3 °C 54.4 °F /  12.4 °C 30.00in /  1015.8hPa SW 1.0mph /  1.6km/h 1.0mph /  1.6km/h 78% 0.00in /  0mm
10:02 61.8 °F /  16.6 °C 54.5 °F /  12.5 °C 30.00in /  1015.8hPa SW 1.1mph /  1.8km/h 1.1mph /  1.8km/h 77% 0.00in /  0mm
10:07 62.3 °F /  16.8 °C 54.6 °F /  12.6 °C 30.00in /  1015.8hPa SW 2.0mph /  3.2km/h 2.0mph /  3.2km/h 76% 0.00in /  0mm
10:12 62.6 °F /  17 °C 54.9 °F /  12.7 °C 30.00in /  1015.8hPa Calm     76% 0.00in /  0mm
10:17 62.9 °F /  17.2 °C 54.5 °F /  12.5 °C 30.00in /  1015.8hPa SSW 1.1mph /  1.8km/h 1.1mph /  1.8km/h 74% 0.00in /  0mm
10:22 63.3 °F /  17.4 °C 55.2 °F /  12.9 °C 30.00in /  1015.8hPa SW 1.1mph /  1.8km/h 1.1mph /  1.8km/h 75% 0.00in /  0mm
10:27 63.9 °F /  17.7 °C 55.1 °F /  12.8 °C 30.00in /  1015.8hPa SSW 1.1mph /  1.8km/h 1.1mph /  1.8km/h 73% 0.00in /  0mm
10:32 64.1 °F /  17.8 °C 54.5 °F /  12.5 °C 30.01in /  1016.1hPa SW 2.3mph /  3.7km/h 2.3mph /  3.7km/h 71% 0.00in /  0mm
10:37 63.9 °F /  17.7 °C 54.3 °F /  12.4 °C 30.01in /  1016.1hPa SW 1.1mph /  1.8km/h 1.1mph /  1.8km/h 71% 0.00in /  0mm
10:42 63.9 °F /  17.7 °C 54.7 °F /  12.6 °C 30.00in /  1015.8hPa SW 2.3mph /  3.7km/h 2.3mph /  3.7km/h 72% 0.00in /  0mm
10:47 64.1 °F /  17.8 °C 54.9 °F /  12.7 °C 30.00in /  1015.8hPa SW 1.1mph /  1.8km/h 1.1mph /  1.8km/h 72% 0.00in /  0mm
10:52 64.5 °F /  18.1 °C 55.3 °F /  12.9 °C 30.00in /  1015.8hPa South 1.1mph /  1.8km/h 1.1mph /  1.8km/h 72% 0.00in /  0mm
10:57 64.5 °F /  18.1 °C 54.9 °F /  12.7 °C 30.00in /  1015.8hPa SSW 1.1mph /  1.8km/h 1.1mph /  1.8km/h 71% 0.00in /  0mm
11:03 64.5 °F /  18.1 °C 54.9 °F /  12.7 °C 30.00in /  1015.8hPa SSW 1.1mph /  1.8km/h 1.1mph /  1.8km/h 71% 0.00in /  0mm
11:08 64.4 °F /  18 °C 54.8 °F /  12.7 °C 30.00in /  1015.8hPa Calm   0.1mph /  0.2km/h 71% 0.00in /  0mm
11:13 64.5 °F /  18.1 °C 54.5 °F /  12.5 °C 29.99in /  1015.5hPa West 1.1mph /  1.8km/h 1.1mph /  1.8km/h 70% 0.00in /  0mm
11:18 64.6 °F /  18.1 °C 54.6 °F /  12.6 °C 29.99in /  1015.5hPa SW 1.0mph /  1.6km/h   70% 0.00in /  0mm
11:23 65.0 °F /  18.3 °C 55.4 °F /  13 °C 29.99in /  1015.5hPa Calm     71% 0.00in /  0mm
11:28 65.5 °F /  18.6 °C 55.1 °F /  12.8 °C 29.98in /  1015.1hPa Calm     69% 0.00in /  0mm
11:33 65.9 °F /  18.8 °C 55.8 °F /  13.2 °C 29.99in /  1015.5hPa Calm     70% 0.00in /  0mm
11:38 66.7 °F /  19.3 °C 55.4 °F /  13 °C 29.98in /  1015.1hPa WSW 1.1mph /  1.8km/h 1.1mph /  1.8km/h 67% 0.00in /  0mm
11:43 66.6 °F /  19.2 °C 55.3 °F /  12.9 °C 29.98in /  1015.1hPa Calm     67% 0.00in /  0mm
11:48 67.2 °F /  19.6 °C 55.5 °F /  13.1 °C 29.98in /  1015.1hPa Calm   0.2mph /  0.3km/h 66% 0.00in /  0mm
11:53 67.4 °F /  19.7 °C 55.2 °F /  12.9 °C 29.98in /  1015.1hPa SW 1.1mph /  1.8km/h 1.1mph /  1.8km/h 65% 0.00in /  0mm
11:58 67.8 °F /  19.9 °C 55.2 °F /  12.9 °C 29.98in /  1015.1hPa SSE 3.5mph /  5.6km/h 3.5mph /  5.6km/h 64% 0.00in /  0mm
12:03 67.7 °F /  19.8 °C 54.2 °F /  12.3 °C 29.98in /  1015.1hPa WNW 2.3mph /  3.7km/h 2.3mph /  3.7km/h 62% 0.00in /  0mm
12:08 67.5 °F /  19.7 °C 54.9 °F /  12.7 °C 29.98in /  1015.1hPa SW 1.1mph /  1.8km/h 1.1mph /  1.8km/h 64% 0.00in /  0mm
12:13 67.5 °F /  19.7 °C 54.9 °F /  12.7 °C 29.97in /  1014.8hPa SW 1.1mph /  1.8km/h 1.1mph /  1.8km/h 64% 0.00in /  0mm
12:18 68.1 °F /  20.1 °C 55.0 °F /  12.8 °C 29.97in /  1014.8hPa ESE 1.1mph /  1.8km/h 1.1mph /  1.8km/h 63% 0.00in /  0mm
12:23 68.3 °F /  20.2 °C 54.3 °F /  12.4 °C 29.97in /  1014.8hPa South 1.0mph /  1.6km/h 1.0mph /  1.6km/h 61% 0.00in /  0mm
12:28 68.7 °F /  20.4 °C 54.7 °F /  12.6 °C 29.96in /  1014.4hPa WNW 1.0mph /  1.6km/h 1.0mph /  1.6km/h 61% 0.00in /  0mm
12:34 68.9 °F /  20.5 °C 54.4 °F /  12.4 °C 29.96in /  1014.4hPa West 1.1mph /  1.8km/h   60% 0.00in /  0mm
12:39 69.2 °F /  20.7 °C 54.7 °F /  12.6 °C 29.95in /  1014.1hPa Calm     60% 0.00in /  0mm
12:44 69.1 °F /  20.6 °C 54.2 °F /  12.3 °C 29.96in /  1014.4hPa SSW 1.1mph /  1.8km/h 1.1mph /  1.8km/h 59% 0.00in /  0mm
12:49 69.4 °F /  20.8 °C 54.9 °F /  12.7 °C 29.96in /  1014.4hPa West 1.1mph /  1.8km/h 1.1mph /  1.8km/h 60% 0.00in /  0mm
12:54 69.9 °F /  21.1 °C 54.4 °F /  12.4 °C 29.96in /  1014.4hPa West 3.5mph /  5.6km/h 3.5mph /  5.6km/h 58% 0.00in /  0mm
12:59 70.7 °F /  21.5 °C 55.2 °F /  12.9 °C 29.95in /  1014.1hPa Calm     58% 0.00in /  0mm
13:04 70.7 °F /  21.5 °C 54.7 °F /  12.6 °C 29.95in /  1014.1hPa SW 1.1mph /  1.8km/h 1.1mph /  1.8km/h 57% 0.00in /  0mm
13:09 70.9 °F /  21.6 °C 54.9 °F /  12.7 °C 29.95in /  1014.1hPa Calm     57% 0.00in /  0mm
13:14 70.8 °F /  21.6 °C 53.8 °F /  12.1 °C 29.94in /  1013.8hPa SW 1.1mph /  1.8km/h 1.1mph /  1.8km/h 55% 0.00in /  0mm
13:19 70.3 °F /  21.3 °C 53.9 °F /  12.2 °C 29.94in /  1013.8hPa WNW 2.3mph /  3.7km/h 2.3mph /  3.7km/h 56% 0.00in /  0mm
13:24 70.0 °F /  21.1 °C 54.1 °F /  12.3 °C 29.94in /  1013.8hPa SSW 1.1mph /  1.8km/h 1.1mph /  1.8km/h 57% 0.00in /  0mm
13:29 70.0 °F /  21.1 °C 54.5 °F /  12.5 °C 29.93in /  1013.4hPa SSW 1.1mph /  1.8km/h   58% 0.00in /  0mm
13:34 70.2 °F /  21.2 °C 54.7 °F /  12.6 °C 29.93in /  1013.4hPa West 1.1mph /  1.8km/h 1.1mph /  1.8km/h 58% 0.00in /  0mm
13:39 70.4 °F /  21.3 °C 54.4 °F /  12.4 °C 29.92in /  1013.1hPa SW 1.1mph /  1.8km/h 1.1mph /  1.8km/h 57% 0.00in /  0mm
13:44 70.6 °F /  21.4 °C 54.6 °F /  12.6 °C 29.92in /  1013.1hPa SW 1.1mph /  1.8km/h 1.1mph /  1.8km/h 57% 0.00in /  0mm
13:49 70.9 °F /  21.6 °C 54.4 °F /  12.4 °C 29.92in /  1013.1hPa SW 2.3mph /  3.7km/h 2.3mph /  3.7km/h 56% 0.00in /  0mm
13:54 71.7 °F /  22.1 °C 54.7 °F /  12.6 °C 29.92in /  1013.1hPa West 2.3mph /  3.7km/h 2.3mph /  3.7km/h 55% 0.00in /  0mm
13:59 72.0 °F /  22.2 °C 54.4 °F /  12.4 °C 29.91in /  1012.8hPa Calm   0.1mph /  0.2km/h 54% 0.00in /  0mm
14:04 72.1 °F /  22.3 °C 55.0 °F /  12.8 °C 29.91in /  1012.8hPa NE 2.0mph /  3.2km/h 2.0mph /  3.2km/h 55% 0.00in /  0mm
14:09 72.8 °F /  22.7 °C 55.2 °F /  12.9 °C 29.91in /  1012.8hPa WNW 3.5mph /  5.6km/h 3.5mph /  5.6km/h 54% 0.00in /  0mm
14:14 72.8 °F /  22.7 °C 54.7 °F /  12.6 °C 29.91in /  1012.8hPa West 4.6mph /  7.4km/h 4.6mph /  7.4km/h 53% 0.00in /  0mm
14:19 72.3 °F /  22.4 °C 55.7 °F /  13.2 °C 29.91in /  1012.8hPa WNW 2.3mph /  3.7km/h 2.3mph /  3.7km/h 56% 0.00in /  0mm
14:24 72.8 °F /  22.7 °C 55.2 °F /  12.9 °C 29.91in /  1012.8hPa SSW 2.3mph /  3.7km/h 2.3mph /  3.7km/h 54% 0.00in /  0mm
14:29 73.5 °F /  23.1 °C 55.3 °F /  12.9 °C 29.91in /  1012.8hPa WSW 2.3mph /  3.7km/h 2.3mph /  3.7km/h 53% 0.00in /  0mm
14:34 74.0 °F /  23.3 °C 55.8 °F /  13.2 °C 29.91in /  1012.8hPa Calm   0.4mph /  0.6km/h 53% 0.00in /  0mm
14:39 74.0 °F /  23.3 °C 54.7 °F /  12.6 °C 29.91in /  1012.8hPa WNW 3.5mph /  5.6km/h 3.5mph /  5.6km/h 51% 0.00in /  0mm
14:44 74.1 °F /  23.4 °C 55.9 °F /  13.3 °C 29.90in /  1012.4hPa SSW 2.3mph /  3.7km/h 2.3mph /  3.7km/h 53% 0.00in /  0mm
14:49 73.9 °F /  23.3 °C 54.6 °F /  12.6 °C 29.90in /  1012.4hPa WNW 2.0mph /  3.2km/h 2.0mph /  3.2km/h 51% 0.00in /  0mm
14:54 73.8 °F /  23.2 °C 54.5 °F /  12.5 °C 29.90in /  1012.4hPa SSW 1.1mph /  1.8km/h 1.1mph /  1.8km/h 51% 0.00in /  0mm
14:59 74.2 °F /  23.4 °C 54.4 °F /  12.4 °C 29.90in /  1012.4hPa ESE 2.3mph /  3.7km/h 2.3mph /  3.7km/h 50% 0.00in /  0mm
15:04 74.1 °F /  23.4 °C 54.3 °F /  12.4 °C 29.90in /  1012.4hPa NW 3.5mph /  5.6km/h 3.5mph /  5.6km/h 50% 0.00in /  0mm
15:09 73.4 °F /  23 °C 54.2 °F /  12.3 °C 29.89in /  1012.1hPa West 2.3mph /  3.7km/h 2.3mph /  3.7km/h 51% 0.00in /  0mm
15:14 72.7 °F /  22.6 °C 54.6 °F /  12.6 °C 29.89in /  1012.1hPa NNW 4.6mph /  7.4km/h 4.6mph /  7.4km/h 53% 0.00in /  0mm
15:19 72.6 °F /  22.6 °C 55.0 °F /  12.8 °C 29.89in /  1012.1hPa North 2.3mph /  3.7km/h 2.3mph /  3.7km/h 54% 0.00in /  0mm
15:24 72.6 °F /  22.6 °C 55.0 °F /  12.8 °C 29.89in /  1012.1hPa SW 3.5mph /  5.6km/h 3.5mph /  5.6km/h 54% 0.00in /  0mm
15:29 72.6 °F /  22.6 °C 54.5 °F /  12.5 °C 29.89in /  1012.1hPa WSW 1.0mph /  1.6km/h 1.0mph /  1.6km/h 53% 0.00in /  0mm
15:35 72.3 °F /  22.4 °C 54.7 °F /  12.6 °C 29.89in /  1012.1hPa SW 1.1mph /  1.8km/h   54% 0.00in /  0mm
15:40 72.1 °F /  22.3 °C 54.5 °F /  12.5 °C 29.88in /  1011.7hPa Calm   0.5mph /  0.8km/h 54% 0.00in /  0mm
15:45 72.0 °F /  22.2 °C 53.9 °F /  12.2 °C 29.88in /  1011.7hPa Calm     53% 0.00in /  0mm
15:50 71.6 °F /  22 °C 54.1 °F /  12.3 °C 29.88in /  1011.7hPa NNW 2.3mph /  3.7km/h 2.3mph /  3.7km/h 54% 0.00in /  0mm
15:55 70.9 °F /  21.6 °C 53.9 °F /  12.2 °C 29.88in /  1011.7hPa West 1.1mph /  1.8km/h   55% 0.00in /  0mm
16:00 70.8 °F /  21.6 °C 53.8 °F /  12.1 °C 29.88in /  1011.7hPa Calm     55% 0.00in /  0mm
16:05 70.6 °F /  21.4 °C 53.6 °F /  12 °C 29.87in /  1011.4hPa North 1.0mph /  1.6km/h 1.0mph /  1.6km/h 55% 0.00in /  0mm
16:10 70.6 °F /  21.4 °C 54.1 °F /  12.3 °C 29.87in /  1011.4hPa West 1.1mph /  1.8km/h 1.1mph /  1.8km/h 56% 0.00in /  0mm
16:15 70.4 °F /  21.3 °C 54.0 °F /  12.2 °C 29.86in /  1011.1hPa West 1.1mph /  1.8km/h   56% 0.00in /  0mm
16:20 70.3 °F /  21.3 °C 53.9 °F /  12.2 °C 29.86in /  1011.1hPa SW 1.1mph /  1.8km/h 1.1mph /  1.8km/h 56% 0.00in /  0mm
16:25 70.2 °F /  21.2 °C 54.2 °F /  12.3 °C 29.86in /  1011.1hPa North 2.3mph /  3.7km/h 2.3mph /  3.7km/h 57% 0.00in /  0mm
16:30 70.1 °F /  21.2 °C 53.7 °F /  12.1 °C 29.86in /  1011.1hPa West 1.1mph /  1.8km/h 1.1mph /  1.8km/h 56% 0.00in /  0mm
16:35 69.9 °F /  21.1 °C 54.0 °F /  12.2 °C 29.86in /  1011.1hPa Calm     57% 0.00in /  0mm
16:40 69.5 °F /  20.8 °C 53.6 °F /  12 °C 29.86in /  1011.1hPa NNW 1.1mph /  1.8km/h   57% 0.00in /  0mm
16:45 69.4 °F /  20.8 °C 53.5 °F /  11.9 °C 29.86in /  1011.1hPa West 1.1mph /  1.8km/h 1.1mph /  1.8km/h 57% 0.00in /  0mm
16:50 69.3 °F /  20.7 °C 53.4 °F /  11.9 °C 29.86in /  1011.1hPa Calm     57% 0.00in /  0mm
16:55 69.2 °F /  20.7 °C 53.3 °F /  11.8 °C 29.86in /  1011.1hPa NW 1.1mph /  1.8km/h 1.1mph /  1.8km/h 57% 0.00in /  0mm
17:00 68.9 °F /  20.5 °C 53.5 °F /  11.9 °C 29.86in /  1011.1hPa Calm     58% 0.00in /  0mm
17:05 68.7 °F /  20.4 °C 53.3 °F /  11.8 °C 29.85in /  1010.7hPa Calm     58% 0.00in /  0mm
17:10 68.6 °F /  20.3 °C 53.2 °F /  11.8 °C 29.86in /  1011.1hPa Calm     58% 0.00in /  0mm
17:15 68.6 °F /  20.3 °C 53.7 °F /  12.1 °C 29.86in /  1011.1hPa WNW 2.3mph /  3.7km/h 2.3mph /  3.7km/h 59% 0.00in /  0mm
17:20 68.8 °F /  20.4 °C 53.9 °F /  12.2 °C 29.86in /  1011.1hPa NNW 1.0mph /  1.6km/h 1.0mph /  1.6km/h 59% 0.00in /  0mm
17:25 68.8 °F /  20.4 °C 53.4 °F /  11.9 °C 29.85in /  1010.7hPa NW 1.1mph /  1.8km/h 1.1mph /  1.8km/h 58% 0.00in /  0mm
17:30 68.6 °F /  20.3 °C 53.7 °F /  12.1 °C 29.85in /  1010.7hPa North 1.1mph /  1.8km/h 1.1mph /  1.8km/h 59% 0.00in /  0mm
17:35 68.5 °F /  20.3 °C 53.6 °F /  12 °C 29.85in /  1010.7hPa NNW 1.1mph /  1.8km/h   59% 0.00in /  0mm
17:40 68.4 °F /  20.2 °C 53.0 °F /  11.7 °C 29.85in /  1010.7hPa NNW 1.1mph /  1.8km/h 1.1mph /  1.8km/h 58% 0.00in /  0mm
17:45 68.3 °F /  20.2 °C 52.9 °F /  11.6 °C 29.84in /  1010.4hPa NNW 1.1mph /  1.8km/h 1.1mph /  1.8km/h 58% 0.00in /  0mm
17:50 68.2 °F /  20.1 °C 52.9 °F /  11.6 °C 29.84in /  1010.4hPa Calm     58% 0.00in /  0mm
17:55 68.0 °F /  20 °C 52.7 °F /  11.5 °C 29.84in /  1010.4hPa NNW 1.1mph /  1.8km/h 1.1mph /  1.8km/h 58% 0.00in /  0mm
18:00 67.9 °F /  19.9 °C 52.6 °F /  11.4 °C 29.84in /  1010.4hPa Calm     58% 0.00in /  0mm
18:05 67.8 °F /  19.9 °C 52.9 °F /  11.6 °C 29.84in /  1010.4hPa Calm     59% 0.00in /  0mm
18:10 67.7 °F /  19.8 °C 52.9 °F /  11.6 °C 29.83in /  1010hPa Calm     59% 0.00in /  0mm
18:15 67.5 °F /  19.7 °C 52.7 °F /  11.5 °C 29.83in /  1010hPa Calm     59% 0.00in /  0mm
18:20 67.3 °F /  19.6 °C 52.5 °F /  11.4 °C 29.83in /  1010hPa Calm     59% 0.00in /  0mm
18:25 67.2 °F /  19.6 °C 52.8 °F /  11.6 °C 29.82in /  1009.7hPa Calm     60% 0.00in /  0mm
18:30 67.1 °F /  19.5 °C 52.7 °F /  11.5 °C 29.82in /  1009.7hPa East 2.3mph /  3.7km/h 2.3mph /  3.7km/h 60% 0.00in /  0mm
18:35 67.1 °F /  19.5 °C 53.2 °F /  11.8 °C 29.82in /  1009.7hPa East 2.3mph /  3.7km/h 2.3mph /  3.7km/h 61% 0.00in /  0mm
18:36 67.1 °F /  19.5 °C 53.2 °F /  11.8 °C 29.82in /  1009.7hPa East 2.3mph /  3.7km/h 2.3mph /  3.7km/h 61% 0.00in /  0mm
18:41 67.1 °F /  19.5 °C 53.2 °F /  11.8 °C 29.81in /  1009.4hPa East 1.1mph /  1.8km/h   61% 0.00in /  0mm
18:46 66.9 °F /  19.4 °C 53.5 °F /  11.9 °C 29.81in /  1009.4hPa East 1.0mph /  1.6km/h   62% 0.00in /  0mm
18:51 66.9 °F /  19.4 °C 53.9 °F /  12.2 °C 29.81in /  1009.4hPa East 2.3mph /  3.7km/h 2.3mph /  3.7km/h 63% 0.00in /  0mm
18:56 66.7 °F /  19.3 °C 53.7 °F /  12.1 °C 29.81in /  1009.4hPa Calm     63% 0.00in /  0mm
19:01 66.6 °F /  19.2 °C 53.6 °F /  12 °C 29.81in /  1009.4hPa East 1.1mph /  1.8km/h 1.1mph /  1.8km/h 63% 0.00in /  0mm
19:06 66.5 °F /  19.2 °C 53.5 °F /  11.9 °C 29.81in /  1009.4hPa Calm     63% 0.00in /  0mm
19:11 66.3 °F /  19.1 °C 52.4 °F /  11.3 °C 29.82in /  1009.7hPa Calm     61% 0.00in /  0mm
19:16 65.8 °F /  18.8 °C 52.4 °F /  11.3 °C 29.82in /  1009.7hPa South 1.1mph /  1.8km/h 1.1mph /  1.8km/h 62% 0.00in /  0mm
19:21 65.3 °F /  18.5 °C 51.9 °F /  11.1 °C 29.82in /  1009.7hPa SSE 2.3mph /  3.7km/h 2.3mph /  3.7km/h 62% 0.00in /  0mm
19:26 64.8 °F /  18.2 °C 51.9 °F /  11.1 °C 29.82in /  1009.7hPa SE 1.1mph /  1.8km/h 1.1mph /  1.8km/h 63% 0.00in /  0mm
19:31 64.4 °F /  18 °C 52.0 °F /  11.1 °C 29.82in /  1009.7hPa SSW 1.1mph /  1.8km/h 1.1mph /  1.8km/h 64% 0.00in /  0mm
19:36 64.1 °F /  17.8 °C 51.7 °F /  10.9 °C 29.82in /  1009.7hPa SW 2.0mph /  3.2km/h 2.0mph /  3.2km/h 64% 0.00in /  0mm
19:41 63.8 °F /  17.7 °C 51.4 °F /  10.8 °C 29.82in /  1009.7hPa South 1.1mph /  1.8km/h 1.1mph /  1.8km/h 64% 0.00in /  0mm
19:46 63.5 °F /  17.5 °C 51.5 °F /  10.8 °C 29.82in /  1009.7hPa SW 1.1mph /  1.8km/h 1.1mph /  1.8km/h 65% 0.00in /  0mm
19:51 63.3 °F /  17.4 °C 51.3 °F /  10.7 °C 29.82in /  1009.7hPa SW 1.1mph /  1.8km/h 1.1mph /  1.8km/h 65% 0.00in /  0mm
19:56 63.1 °F /  17.3 °C 51.1 °F /  10.6 °C 29.81in /  1009.4hPa SW 1.1mph /  1.8km/h   65% 0.00in /  0mm
20:01 62.9 °F /  17.2 °C 51.0 °F /  10.6 °C 29.81in /  1009.4hPa West 1.1mph /  1.8km/h   65% 0.00in /  0mm
20:06 62.7 °F /  17.1 °C 51.2 °F /  10.7 °C 29.80in /  1009hPa SW 1.1mph /  1.8km/h   66% 0.00in /  0mm
20:11 62.5 °F /  16.9 °C 51.0 °F /  10.6 °C 29.80in /  1009hPa SW 1.1mph /  1.8km/h   66% 0.00in /  0mm
20:16 62.3 °F /  16.8 °C 51.2 °F /  10.7 °C 29.81in /  1009.4hPa Calm     67% 0.00in /  0mm
20:21 62.1 °F /  16.7 °C 51.4 °F /  10.8 °C 29.81in /  1009.4hPa West 1.1mph /  1.8km/h 1.1mph /  1.8km/h 68% 0.00in /  0mm
20:26 62.0 °F /  16.7 °C 51.3 °F /  10.7 °C 29.80in /  1009hPa SSW 1.1mph /  1.8km/h   68% 0.00in /  0mm
20:31 61.8 °F /  16.6 °C 51.1 °F /  10.6 °C 29.81in /  1009.4hPa SSW 1.1mph /  1.8km/h 1.1mph /  1.8km/h 68% 0.00in /  0mm
20:36 61.5 °F /  16.4 °C 50.8 °F /  10.4 °C 29.81in /  1009.4hPa South 1.0mph /  1.6km/h   68% 0.00in /  0mm
20:41 61.3 °F /  16.3 °C 50.6 °F /  10.3 °C 29.81in /  1009.4hPa Calm   0.2mph /  0.3km/h 68% 0.00in /  0mm
20:46 61.2 °F /  16.2 °C 50.6 °F /  10.3 °C 29.81in /  1009.4hPa Calm     68% 0.00in /  0mm
20:51 61.0 °F /  16.1 °C 50.4 °F /  10.2 °C 29.80in /  1009hPa Calm     68% 0.00in /  0mm
20:56 60.9 °F /  16.1 °C 50.7 °F /  10.4 °C 29.80in /  1009hPa SSW 1.1mph /  1.8km/h   69% 0.00in /  0mm
21:00 60.8 °F /  16 °C 50.6 °F /  10.3 °C 29.80in /  1009hPa Calm     69% 0.00in /  0mm
21:01 60.8 °F /  16 °C 50.6 °F /  10.3 °C 29.80in /  1009hPa Calm     69% 0.00in /  0mm
21:06 60.6 °F /  15.9 °C 50.8 °F /  10.4 °C 29.79in /  1008.7hPa SSW 1.1mph /  1.8km/h   70% 0.00in /  0mm
21:11 60.4 °F /  15.8 °C 50.2 °F /  10.1 °C 29.79in /  1008.7hPa Calm     69% 0.00in /  0mm
21:16 60.4 °F /  15.8 °C 50.2 °F /  10.1 °C 29.80in /  1009hPa Calm     69% 0.00in /  0mm
21:21 60.3 °F /  15.7 °C 50.5 °F /  10.3 °C 29.80in /  1009hPa Calm     70% 0.00in /  0mm
21:26 60.3 °F /  15.7 °C 50.5 °F /  10.3 °C 29.80in /  1009hPa Calm     70% 0.00in /  0mm
21:31 60.2 °F /  15.7 °C 50.4 °F /  10.2 °C 29.80in /  1009hPa SSW 1.1mph /  1.8km/h 1.1mph /  1.8km/h 70% 0.00in /  0mm
21:36 60.1 °F /  15.6 °C 50.3 °F /  10.2 °C 29.80in /  1009hPa SSW 1.1mph /  1.8km/h 1.1mph /  1.8km/h 70% 0.00in /  0mm
21:41 60.0 °F /  15.6 °C 50.2 °F /  10.1 °C 29.80in /  1009hPa Calm     70% 0.00in /  0mm
21:46 59.9 °F /  15.5 °C 50.5 °F /  10.3 °C 29.80in /  1009hPa Calm     71% 0.00in /  0mm
21:51 59.8 °F /  15.4 °C 50.4 °F /  10.2 °C 29.80in /  1009hPa Calm     71% 0.00in /  0mm
21:56 59.7 °F /  15.4 °C 50.3 °F /  10.2 °C 29.79in /  1008.7hPa Calm     71% 0.00in /  0mm
22:01 59.6 °F /  15.3 °C 50.6 °F /  10.3 °C 29.79in /  1008.7hPa Calm     72% 0.00in /  0mm
22:06 59.5 °F /  15.3 °C 50.5 °F /  10.3 °C 29.80in /  1009hPa Calm     72% 0.00in /  0mm
22:11 59.4 °F /  15.2 °C 50.4 °F /  10.2 °C 29.80in /  1009hPa Calm     72% 0.00in /  0mm
22:16 59.3 °F /  15.2 °C 50.3 °F /  10.2 °C 29.80in /  1009hPa Calm     72% 0.00in /  0mm
22:21 59.2 °F /  15.1 °C 50.5 °F /  10.3 °C 29.79in /  1008.7hPa Calm     73% 0.00in /  0mm
22:26 59.1 °F /  15.1 °C 50.5 °F /  10.3 °C 29.79in /  1008.7hPa Calm     73% 0.00in /  0mm
22:31 58.9 °F /  14.9 °C 50.3 °F /  10.2 °C 29.79in /  1008.7hPa Calm     73% 0.00in /  0mm
22:36 58.8 °F /  14.9 °C 50.2 °F /  10.1 °C 29.80in /  1009hPa Calm     73% 0.00in /  0mm
22:41 58.7 °F /  14.8 °C 50.4 °F /  10.2 °C 29.79in /  1008.7hPa Calm     74% 0.00in /  0mm
22:46 58.6 °F /  14.8 °C 50.3 °F /  10.2 °C 29.80in /  1009hPa Calm     74% 0.00in /  0mm
22:51 58.6 °F /  14.8 °C 50.3 °F /  10.2 °C 29.80in /  1009hPa Calm     74% 0.00in /  0mm
22:56 58.7 °F /  14.8 °C 50.4 °F /  10.2 °C 29.80in /  1009hPa Calm     74% 0.00in /  0mm
23:01 58.8 °F /  14.9 °C 50.5 °F /  10.3 °C 29.79in /  1008.7hPa Calm     74% 0.00in /  0mm
23:06 58.9 °F /  14.9 °C 50.3 °F /  10.2 °C 29.79in /  1008.7hPa Calm   0.1mph /  0.2km/h 73% 0.00in /  0mm
23:11 59.1 °F /  15.1 °C 50.5 °F /  10.3 °C 29.79in /  1008.7hPa NE 1.1mph /  1.8km/h 1.1mph /  1.8km/h 73% 0.00in /  0mm
23:16 59.4 °F /  15.2 °C 50.4 °F /  10.2 °C 29.79in /  1008.7hPa Calm     72% 0.00in /  0mm
23:21 59.5 °F /  15.3 °C 50.5 °F /  10.3 °C 29.79in /  1008.7hPa East 1.1mph /  1.8km/h 1.1mph /  1.8km/h 72% 0.00in /  0mm
23:26 59.5 °F /  15.3 °C 50.5 °F /  10.3 °C 29.78in /  1008.4hPa Calm     72% 0.00in /  0mm
23:31 59.4 °F /  15.2 °C 50.4 °F /  10.2 °C 29.78in /  1008.4hPa Calm     72% 0.00in /  0mm
23:36 59.3 °F /  15.2 °C 50.3 °F /  10.2 °C 29.78in /  1008.4hPa Calm     72% 0.00in /  0mm
23:41 59.3 °F /  15.2 °C 50.3 °F /  10.2 °C 29.78in /  1008.4hPa Calm     72% 0.00in /  0mm
23:46 59.2 °F /  15.1 °C 50.2 °F /  10.1 °C 29.78in /  1008.4hPa Calm     72% 0.00in /  0mm
23:51 59.2 °F /  15.1 °C 50.2 °F /  10.1 °C 29.78in /  1008.4hPa Calm   0.1mph /  0.2km/h 72% 0.00in /  0mm
23:56 59.5 °F /  15.3 °C 50.5 °F /  10.3 °C 29.77in /  1008hPa East 1.1mph /  1.8km/h 1.1mph /  1.8km/h 72% 0.00in /  0mm
Compliments of Weather Underground